Terminal Aerodrome Forecast
Issued by NWS Norman, OK

Home | Current Version | Previous Version | Text Only | Print | Product List | Glossary On
Versions: 1 2 3 4 5 6 7 8 9 10 11 12 13 14 15 16 17 18 19 20 21 22 23 24 25 26 27
000
FTUS44 KOUN 031000 AAA
TAFSPS
TAF AMD
KSPS 031000Z 0310/0406 17007KT P6SM BKN100 OVC250
     FM031045 35009KT P6SM VCTS SCT080CB BKN100
      TEMPO 0311/0313 5SM -TSRA BKN060CB
     FM031300 15009KT P6SM FEW070 SCT250
     FM032300 14010KT P6SM SCT070 SCT200=

USA.gov is the U.S. government's official web portal to all federal, state and local government web resources and services.